MV Sea Wolf — WCW6738 — position and weather

sailwx.info

Track history (hours):
 
Tides and Currents Weather Stations Pressure Air Temp Water Temp Dewpoint Dewpoint Depression Visibility Wind Speed Wind Dir Waves Ship Positions

MV Sea Wolf

Owner: SEA WOLF MARINE TOWING & TRANSPORTATION, Bayonne, NJ. More information available from US FCC via Universal Licensing System and Coast Guard Vessel Documentation Center.

Last reported at 2016-Feb-12 09:33 UTC. Time now 2016-Feb-12 09:53 UTC.
Position N 40°41' W 074°05'.

Length 66 m; draft 10 m.

MMSI: 367002350.

Date/timePositionNaut miles runAvg speedWind from/ knotsBaromVisibWave heightAir tempDewpointWater temp
2016-Feb-12 09:33N 40°41' W 074°05'0 0.0
2016-Feb-12 08:33N 40°41' W 074°05'0 0.0
2016-Feb-12 07:31N 40°41' W 074°05'0 0.0
2016-Feb-12 06:33N 40°41' W 074°05'0 0.0
2016-Feb-12 05:33N 40°41' W 074°05'0 0.0
2016-Feb-12 04:33N 40°41' W 074°05'0 0.0
2016-Feb-12 03:33N 40°41' W 074°05'0 0.0
2016-Feb-12 02:33N 40°41' W 074°05'0 0.0
2016-Feb-12 01:33N 40°41' W 074°05'0 0.0
2016-Feb-12 00:33N 40°41' W 074°05'0 0.0
2016-Feb-11 23:32N 40°41' W 074°05'0 0.0
2016-Feb-11 22:33N 40°41' W 074°05'0 0.0
2016-Feb-11 21:33N 40°41' W 074°05'0 0.0
2016-Feb-11 20:33N 40°41' W 074°05'0 0.0
2016-Feb-11 19:32N 40°41' W 074°05'0 0.0
2016-Feb-11 18:33N 40°41' W 074°05'0 0.0
2016-Feb-11 17:33N 40°41' W 074°05'0 0.0
2016-Feb-11 16:33N 40°41' W 074°05'0 0.0
2016-Feb-11 15:33N 40°41' W 074°05'0 0.0
2016-Feb-11 14:31N 40°41' W 074°05'0 0.0
2016-Feb-11 13:31N 40°41' W 074°05'0 0.0
2016-Feb-11 12:29N 40°41' W 074°05'0 0.0
2016-Feb-11 11:31N 40°41' W 074°05'0 0.0
2016-Feb-11 10:31N 40°41' W 074°05'0 0.0
2016-Feb-11 09:33N 40°41' W 074°05'0 0.0
2016-Feb-11 08:32N 40°41' W 074°05'0 0.0
2016-Feb-11 07:33N 40°41' W 074°05'0 0.0
2016-Feb-11 06:33N 40°41' W 074°05'0 0.0
2016-Feb-11 05:33N 40°41' W 074°05'0 0.0
2016-Feb-11 04:33N 40°41' W 074°05'0 0.0
2016-Feb-11 03:31N 40°41' W 074°05'4 1.7
2016-Feb-11 01:17N 40°39' W 074°08'4 5.4
2016-Feb-11 00:33N 40°41' W 074°04'4 3.8
2016-Feb-10 23:33N 40°42' W 073°60'1 0.3
2016-Feb-10 21:16N 40°43' W 073°59'3 3.9
2016-Feb-10 20:29N 40°40' W 074°01'3 3.7
2016-Feb-10 19:33N 40°41' W 074°05'0 0.0
2016-Feb-10 18:33N 40°41' W 074°05'0 0.0
2016-Feb-10 17:33N 40°41' W 074°05'0 0.0
2016-Feb-10 16:32N 40°41' W 074°05'0 0.0
2016-Feb-10 15:32N 40°41' W 074°05'0 0.0
2016-Feb-10 14:33N 40°41' W 074°05'0 0.0
2016-Feb-10 13:33N 40°41' W 074°05'0 0.0
2016-Feb-10 12:33N 40°41' W 074°05'0 0.0
2016-Feb-10 11:33N 40°41' W 074°05'0 0.0
2016-Feb-10 10:33N 40°41' W 074°05'0 0.0
2016-Feb-10 09:33N 40°41' W 074°05'0 0.0
2016-Feb-10 08:33N 40°41' W 074°05'0 0.0
2016-Feb-10 07:33N 40°41' W 074°05'0 0.0
2016-Feb-10 06:33N 40°41' W 074°05'0 0.0
2016-Feb-10 05:33N 40°41' W 074°05'0 0.0
2016-Feb-10 04:33N 40°41' W 074°05'3 3.5
2016-Feb-10 03:33N 40°40' W 074°01'1 0.6
2016-Feb-10 02:33N 40°40' W 074°01'2 0.8
2016-Feb-10 00:33N 40°42' W 074°00'7 6.7
2016-Feb-09 23:32N 40°39' W 074°08'3 2.0
2016-Feb-09 22:09N 40°38' W 074°12'3 3.7
2016-Feb-09 21:27N 40°39' W 074°08'4 4.4
2016-Feb-09 20:33N 40°41' W 074°04'0 0.2
2016-Feb-09 19:33N 40°41' W 074°05'0 0.0
2016-Feb-09 18:33N 40°41' W 074°05'0 0.0
2016-Feb-09 17:33N 40°41' W 074°05'0 0.0
2016-Feb-09 16:33N 40°41' W 074°05'0 0.0
2016-Feb-09 15:33N 40°41' W 074°05'0 0.0
2016-Feb-09 14:33N 40°41' W 074°05'0 0.0
2016-Feb-09 13:33N 40°41' W 074°05'0 0.0
2016-Feb-09 12:33N 40°41' W 074°05'0 0.0
2016-Feb-09 11:33N 40°41' W 074°05'0 0.0
2016-Feb-09 10:33N 40°41' W 074°05'0 0.0
2016-Feb-09 09:33N 40°41' W 074°05'0 0.0
2016-Feb-09 08:33N 40°41' W 074°05'0 0.2
2016-Feb-09 07:33N 40°41' W 074°04'3 3.1
2016-Feb-09 06:33N 40°40' W 074°01'3 3.2
2016-Feb-09 05:33N 40°41' W 074°05'0 0.2
2016-Feb-09 04:33N 40°41' W 074°05'0 0.0
2016-Feb-09 03:33N 40°41' W 074°05'0 0.0
2016-Feb-09 02:33N 40°41' W 074°05'0 0.0
2016-Feb-09 01:33N 40°41' W 074°05'2 1.8
2016-Feb-09 00:33N 40°41' W 074°02'4 4.2
2016-Feb-08 23:33N 40°44' W 073°58'1 1.0
2016-Feb-08 22:30N 40°44' W 073°57'4 3.7
2016-Feb-08 21:33N 40°42' W 074°00'4 3.5
2016-Feb-08 20:33N 40°41' W 074°05'0 0.0
2016-Feb-08 19:33N 40°41' W 074°05'0 0.0
2016-Feb-08 18:33N 40°41' W 074°05'0 0.0
2016-Feb-08 17:33N 40°41' W 074°05'0 0.0
2016-Feb-08 16:33N 40°41' W 074°05'3 2.6
2016-Feb-08 15:33N 40°43' W 074°02'2 2.3
2016-Feb-08 14:33N 40°45' W 074°01'0 0.1
2016-Feb-08 13:33N 40°45' W 074°01'0 0.0
2016-Feb-08 12:33N 40°45' W 074°01'0 0.0
2016-Feb-08 11:33N 40°45' W 074°01'5 4.7
2016-Feb-08 10:33N 40°40' W 074°04'1 1.0
2016-Feb-08 09:33N 40°41' W 074°05'0 0.0
2016-Feb-08 08:33N 40°41' W 074°05'0 0.0
2016-Feb-08 07:33N 40°41' W 074°05'0 0.0
2016-Feb-08 06:33N 40°41' W 074°05'0 0.0
2016-Feb-08 05:33N 40°41' W 074°05'0 0.0
2016-Feb-08 04:33N 40°41' W 074°05'0 0.0
2016-Feb-08 03:33N 40°41' W 074°05'0 0.0
2016-Feb-08 02:33N 40°41' W 074°05'0 0.0
2016-Feb-08 01:33N 40°41' W 074°05'0 0.0
2016-Feb-08 00:33N 40°41' W 074°05'3 3.5
2016-Feb-07 23:33N 40°40' W 074°01'3 2.8
2016-Feb-07 22:34N 40°42' W 073°59'3 2.7
2016-Feb-07 21:32N 40°44' W 073°57'3 3.4
2016-Feb-07 20:34N 40°42' W 073°60'6 5.6
2016-Feb-07 19:34N 40°39' W 074°06'4 2.0
2016-Feb-07 17:33N 40°39' W 074°11'6 5.9
2016-Feb-07 16:34N 40°40' W 074°04'1 1.2
2016-Feb-07 15:34N 40°41' W 074°05'0 0.0
2016-Feb-07 14:34N 40°41' W 074°05'0 0.0
2016-Feb-07 13:33N 40°41' W 074°05'0 0.0
2016-Feb-07 12:33N 40°41' W 074°05'0 0.0
2016-Feb-07 11:33N 40°41' W 074°05'0 0.0
2016-Feb-07 10:33N 40°41' W 074°05'0 0.0
2016-Feb-07 09:34N 40°41' W 074°05'0 0.0
2016-Feb-07 08:33N 40°41' W 074°05'0 0.0
2016-Feb-07 07:33N 40°41' W 074°05'0 0.0
2016-Feb-07 06:33N 40°41' W 074°05'0 0.0
2016-Feb-07 05:34N 40°41' W 074°05'0 0.0
2016-Feb-07 04:34N 40°41' W 074°05'0 0.0
2016-Feb-07 03:34N 40°41' W 074°05'4 4.4
2016-Feb-07 02:33N 40°43' W 073°59'1 0.4
2016-Feb-06 23:33N 40°44' W 073°58'5 5.4
2016-Feb-06 22:33N 40°41' W 074°04'0 0.2
2016-Feb-06 21:34N 40°41' W 074°05'3 3.3
2016-Feb-06 20:33N 40°40' W 074°01'3 3.1
2016-Feb-06 19:33N 40°43' W 073°59'2 1.8
2016-Feb-06 18:33N 40°44' W 073°58'1 0.8
2016-Feb-06 17:33N 40°44' W 073°57'1 0.8
2016-Feb-06 16:33N 40°44' W 073°58'0 0.0
2016-Feb-06 15:33N 40°44' W 073°58'0 0.0
2016-Feb-06 14:33N 40°44' W 073°58'0 0.0
2016-Feb-06 13:33N 40°44' W 073°58'0 0.0
2016-Feb-06 12:33N 40°44' W 073°58'0 0.0
2016-Feb-06 11:33N 40°44' W 073°58'0 0.0
2016-Feb-06 10:33N 40°44' W 073°58'0 0.0
2016-Feb-06 09:33N 40°44' W 073°58'0 0.0
2016-Feb-06 08:33N 40°44' W 073°58'0 0.0
2016-Feb-06 07:33N 40°44' W 073°58'0 0.0
2016-Feb-06 06:33N 40°44' W 073°58'1 0.8
2016-Feb-06 05:33N 40°43' W 073°58'5 5.0
2016-Feb-06 04:33N 40°40' W 074°03'2 2.3
2016-Feb-06 03:33N 40°40' W 074°01'4 4.0
2016-Feb-06 02:33N 40°43' W 073°58'6 2.8
2016-Feb-06 00:20N 40°48' W 073°53'5 6.7
2016-Feb-05 23:33N 40°44' W 073°58'5 4.9
2016-Feb-05 22:33N 40°41' W 074°02'2 1.7
2016-Feb-05 21:33N 40°41' W 074°05'0 0.0
2016-Feb-05 20:33N 40°41' W 074°05'0 0.0
2016-Feb-05 19:34N 40°41' W 074°05'0 0.0
2016-Feb-05 18:34N 40°41' W 074°05'0 0.0
2016-Feb-05 17:34N 40°41' W 074°05'0 0.0
2016-Feb-05 16:33N 40°41' W 074°05'0 0.0
2016-Feb-05 15:34N 40°41' W 074°05'0 0.0
2016-Feb-05 14:33N 40°41' W 074°05'0 0.0
2016-Feb-05 13:33N 40°41' W 074°05'0 0.0
2016-Feb-05 12:33N 40°41' W 074°05'0 0.0
2016-Feb-05 11:33N 40°41' W 074°05'0 0.0
2016-Feb-05 10:33N 40°41' W 074°05'0 0.0
2016-Feb-05 09:33N 40°41' W 074°05'0 0.0
2016-Feb-05 08:33N 40°41' W 074°05'0 0.0
2016-Feb-05 07:33N 40°41' W 074°05'0 0.0
2016-Feb-05 06:33N 40°41' W 074°05'0 0.0
2016-Feb-05 05:33N 40°41' W 074°05'0 0.0
2016-Feb-05 04:33N 40°41' W 074°05'0 0.0
2016-Feb-05 03:33N 40°41' W 074°05'0 0.0
2016-Feb-05 02:33N 40°41' W 074°05'0 0.0
2016-Feb-05 01:33N 40°41' W 074°05'0 0.0
2016-Feb-05 00:33N 40°41' W 074°05'0 0.0
2016-Feb-04 23:33N 40°41' W 074°05'0 0.0
2016-Feb-04 22:33N 40°41' W 074°05'0 0.0
2016-Feb-04 21:33N 40°41' W 074°05'0 0.0
2016-Feb-04 20:33N 40°41' W 074°05'0 0.0
2016-Feb-04 19:33N 40°41' W 074°05'0 0.0
2016-Feb-04 18:33N 40°41' W 074°05'0 0.0
2016-Feb-04 17:33N 40°41' W 074°05'0 0.0
2016-Feb-04 16:33N 40°41' W 074°05'0 0.0
2016-Feb-04 15:33N 40°41' W 074°05'0 0.0
2016-Feb-04 14:33N 40°41' W 074°05'0 0.0
2016-Feb-04 13:33N 40°41' W 074°05'0 0.0
2016-Feb-04 12:33N 40°41' W 074°05'0 0.0
2016-Feb-04 11:33N 40°41' W 074°05'0 0.0
2016-Feb-04 10:33N 40°41' W 074°05'0 0.0
2016-Feb-04 09:33N 40°41' W 074°05'0 0.0
2016-Feb-04 08:33N 40°41' W 074°05'0 0.0
2016-Feb-04 07:33N 40°41' W 074°05'0 0.0
2016-Feb-04 06:33N 40°41' W 074°05'0 0.0
2016-Feb-04 05:33N 40°41' W 074°05'0 0.0
2016-Feb-04 04:33N 40°41' W 074°05'0 0.0
2016-Feb-04 03:33N 40°41' W 074°05'0 0.0
2016-Feb-04 02:33N 40°41' W 074°05'0 0.0
2016-Feb-04 01:33N 40°41' W 074°05'0 0.0
2016-Feb-04 00:33N 40°41' W 074°05'0 0.0
2016-Feb-03 23:33N 40°41' W 074°05'0 0.0
2016-Feb-03 22:33N 40°41' W 074°05'0 0.0
2016-Feb-03 21:33N 40°41' W 074°05'0 0.0
2016-Feb-03 20:33N 40°41' W 074°05'0 0.0
2016-Feb-03 19:33N 40°41' W 074°05'0 0.0
2016-Feb-03 18:33N 40°41' W 074°05'0 0.0
2016-Feb-03 17:33N 40°41' W 074°05'0 0.0
2016-Feb-03 16:33N 40°41' W 074°05'0 0.0
2016-Feb-03 15:33N 40°41' W 074°05'0 0.0
2016-Feb-03 14:33N 40°41' W 074°05'0 0.0
2016-Feb-03 13:33N 40°41' W 074°05'0 0.0
2016-Feb-03 12:33N 40°41' W 074°05'0 0.0
2016-Feb-03 11:33N 40°41' W 074°05'0 0.0
2016-Feb-03 10:33N 40°41' W 074°05'0 0.0
2016-Feb-03 09:33N 40°41' W 074°05'0 0.0
2016-Feb-03 08:33N 40°41' W 074°05'0 0.0
2016-Feb-03 07:34N 40°41' W 074°05'0 0.0
2016-Feb-03 06:34N 40°41' W 074°05'0 0.0
2016-Feb-03 05:33N 40°41' W 074°05'0 0.0
2016-Feb-03 04:34N 40°41' W 074°05'0 0.0
2016-Feb-03 03:33N 40°41' W 074°05'0 0.0
2016-Feb-03 02:33N 40°41' W 074°05'0 0.0
2016-Feb-03 01:33N 40°41' W 074°05'0 0.0
2016-Feb-03 00:33N 40°41' W 074°05'0 0.0
2016-Feb-02 23:34N 40°41' W 074°05'0 0.0
2016-Feb-02 22:34N 40°41' W 074°05'0 0.0
2016-Feb-02 21:34N 40°41' W 074°05'0 0.0
2016-Feb-02 20:34N 40°41' W 074°05'0 0.0
2016-Feb-02 19:33N 40°41' W 074°05'0 0.0
2016-Feb-02 18:33N 40°41' W 074°05'0 0.0
2016-Feb-02 17:34N 40°41' W 074°05'0 0.0
2016-Feb-02 16:34N 40°41' W 074°05'0 0.0
2016-Feb-02 15:34N 40°41' W 074°05'0 0.0
2016-Feb-02 14:33N 40°41' W 074°05'0 0.0
2016-Feb-02 13:34N 40°41' W 074°05'0 0.0
2016-Feb-02 12:33N 40°41' W 074°05'0 0.0
2016-Feb-02 11:34N 40°41' W 074°05'0 0.0
2016-Feb-02 10:33N 40°41' W 074°05'  
Track history (hours):
 
Tides and Currents Weather Stations Pressure Air Temp Water Temp Dewpoint Dewpoint Depression Visibility Wind Speed Wind Dir Waves Ship Positions

MV Sea Wolf

Owner: SEA WOLF MARINE TOWING & TRANSPORTATION, Bayonne, NJ. More information available from US FCC via Universal Licensing System and Coast Guard Vessel Documentation Center.

Last reported at 2016-Feb-12 09:33 UTC. Time now 2016-Feb-12 09:53 UTC.
Position N 40°41' W 074°05'.

Length 66 m; draft 10 m.

MMSI: 367002350.

Date/timePositionNaut miles runAvg speedWind from/ knotsBaromVisibWave heightAir tempDewpointWater temp
2016-Feb-12 09:33N 40°41' W 074°05'0 0.0
2016-Feb-12 08:33N 40°41' W 074°05'0 0.0
2016-Feb-12 07:31N 40°41' W 074°05'0 0.0
2016-Feb-12 06:33N 40°41' W 074°05'0 0.0
2016-Feb-12 05:33N 40°41' W 074°05'0 0.0
2016-Feb-12 04:33N 40°41' W 074°05'0 0.0
2016-Feb-12 03:33N 40°41' W 074°05'0 0.0
2016-Feb-12 02:33N 40°41' W 074°05'0 0.0
2016-Feb-12 01:33N 40°41' W 074°05'0 0.0
2016-Feb-12 00:33N 40°41' W 074°05'0 0.0
2016-Feb-11 23:32N 40°41' W 074°05'0 0.0
2016-Feb-11 22:33N 40°41' W 074°05'0 0.0
2016-Feb-11 21:33N 40°41' W 074°05'0 0.0
2016-Feb-11 20:33N 40°41' W 074°05'0 0.0
2016-Feb-11 19:32N 40°41' W 074°05'0 0.0
2016-Feb-11 18:33N 40°41' W 074°05'0 0.0
2016-Feb-11 17:33N 40°41' W 074°05'0 0.0
2016-Feb-11 16:33N 40°41' W 074°05'0 0.0
2016-Feb-11 15:33N 40°41' W 074°05'0 0.0
2016-Feb-11 14:31N 40°41' W 074°05'0 0.0
2016-Feb-11 13:31N 40°41' W 074°05'0 0.0
2016-Feb-11 12:29N 40°41' W 074°05'0 0.0
2016-Feb-11 11:31N 40°41' W 074°05'0 0.0
2016-Feb-11 10:31N 40°41' W 074°05'0 0.0
2016-Feb-11 09:33N 40°41' W 074°05'0 0.0
2016-Feb-11 08:32N 40°41' W 074°05'0 0.0
2016-Feb-11 07:33N 40°41' W 074°05'0 0.0
2016-Feb-11 06:33N 40°41' W 074°05'0 0.0
2016-Feb-11 05:33N 40°41' W 074°05'0 0.0
2016-Feb-11 04:33N 40°41' W 074°05'0 0.0
2016-Feb-11 03:31N 40°41' W 074°05'4 1.7
2016-Feb-11 01:17N 40°39' W 074°08'4 5.4
2016-Feb-11 00:33N 40°41' W 074°04'4 3.8
2016-Feb-10 23:33N 40°42' W 073°60'1 0.3
2016-Feb-10 21:16N 40°43' W 073°59'3 3.9
2016-Feb-10 20:29N 40°40' W 074°01'3 3.7
2016-Feb-10 19:33N 40°41' W 074°05'0 0.0
2016-Feb-10 18:33N 40°41' W 074°05'0 0.0
2016-Feb-10 17:33N 40°41' W 074°05'0 0.0
2016-Feb-10 16:32N 40°41' W 074°05'0 0.0
2016-Feb-10 15:32N 40°41' W 074°05'0 0.0
2016-Feb-10 14:33N 40°41' W 074°05'0 0.0
2016-Feb-10 13:33N 40°41' W 074°05'0 0.0
2016-Feb-10 12:33N 40°41' W 074°05'0 0.0
2016-Feb-10 11:33N 40°41' W 074°05'0 0.0
2016-Feb-10 10:33N 40°41' W 074°05'0 0.0
2016-Feb-10 09:33N 40°41' W 074°05'0 0.0
2016-Feb-10 08:33N 40°41' W 074°05'0 0.0
2016-Feb-10 07:33N 40°41' W 074°05'0 0.0
2016-Feb-10 06:33N 40°41' W 074°05'0 0.0
2016-Feb-10 05:33N 40°41' W 074°05'0 0.0
2016-Feb-10 04:33N 40°41' W 074°05'3 3.5
2016-Feb-10 03:33N 40°40' W 074°01'1 0.6
2016-Feb-10 02:33N 40°40' W 074°01'2 0.8
2016-Feb-10 00:33N 40°42' W 074°00'7 6.7
2016-Feb-09 23:32N 40°39' W 074°08'3 2.0
2016-Feb-09 22:09N 40°38' W 074°12'3 3.7
2016-Feb-09 21:27N 40°39' W 074°08'4 4.4
2016-Feb-09 20:33N 40°41' W 074°04'0 0.2
2016-Feb-09 19:33N 40°41' W 074°05'0 0.0
2016-Feb-09 18:33N 40°41' W 074°05'0 0.0
2016-Feb-09 17:33N 40°41' W 074°05'0 0.0
2016-Feb-09 16:33N 40°41' W 074°05'0 0.0
2016-Feb-09 15:33N 40°41' W 074°05'0 0.0
2016-Feb-09 14:33N 40°41' W 074°05'0 0.0
2016-Feb-09 13:33N 40°41' W 074°05'0 0.0
2016-Feb-09 12:33N 40°41' W 074°05'0 0.0
2016-Feb-09 11:33N 40°41' W 074°05'0 0.0
2016-Feb-09 10:33N 40°41' W 074°05'0 0.0
2016-Feb-09 09:33N 40°41' W 074°05'0 0.0
2016-Feb-09 08:33N 40°41' W 074°05'0 0.2
2016-Feb-09 07:33N 40°41' W 074°04'3 3.1
2016-Feb-09 06:33N 40°40' W 074°01'3 3.2
2016-Feb-09 05:33N 40°41' W 074°05'0 0.2
2016-Feb-09 04:33N 40°41' W 074°05'0 0.0
2016-Feb-09 03:33N 40°41' W 074°05'0 0.0
2016-Feb-09 02:33N 40°41' W 074°05'0 0.0
2016-Feb-09 01:33N 40°41' W 074°05'2 1.8
2016-Feb-09 00:33N 40°41' W 074°02'4 4.2
2016-Feb-08 23:33N 40°44' W 073°58'1 1.0
2016-Feb-08 22:30N 40°44' W 073°57'4 3.7
2016-Feb-08 21:33N 40°42' W 074°00'4 3.5
2016-Feb-08 20:33N 40°41' W 074°05'0 0.0
2016-Feb-08 19:33N 40°41' W 074°05'0 0.0
2016-Feb-08 18:33N 40°41' W 074°05'0 0.0
2016-Feb-08 17:33N 40°41' W 074°05'0 0.0
2016-Feb-08 16:33N 40°41' W 074°05'3 2.6
2016-Feb-08 15:33N 40°43' W 074°02'2 2.3
2016-Feb-08 14:33N 40°45' W 074°01'0 0.1
2016-Feb-08 13:33N 40°45' W 074°01'0 0.0
2016-Feb-08 12:33N 40°45' W 074°01'0 0.0
2016-Feb-08 11:33N 40°45' W 074°01'5 4.7
2016-Feb-08 10:33N 40°40' W 074°04'1 1.0
2016-Feb-08 09:33N 40°41' W 074°05'0 0.0
2016-Feb-08 08:33N 40°41' W 074°05'0 0.0
2016-Feb-08 07:33N 40°41' W 074°05'0 0.0
2016-Feb-08 06:33N 40°41' W 074°05'0 0.0
2016-Feb-08 05:33N 40°41' W 074°05'0 0.0
2016-Feb-08 04:33N 40°41' W 074°05'0 0.0
2016-Feb-08 03:33N 40°41' W 074°05'0 0.0
2016-Feb-08 02:33N 40°41' W 074°05'0 0.0
2016-Feb-08 01:33N 40°41' W 074°05'0 0.0
2016-Feb-08 00:33N 40°41' W 074°05'3 3.5
2016-Feb-07 23:33N 40°40' W 074°01'3 2.8
2016-Feb-07 22:34N 40°42' W 073°59'3 2.7
2016-Feb-07 21:32N 40°44' W 073°57'3 3.4
2016-Feb-07 20:34N 40°42' W 073°60'6 5.6
2016-Feb-07 19:34N 40°39' W 074°06'4 2.0
2016-Feb-07 17:33N 40°39' W 074°11'6 5.9
2016-Feb-07 16:34N 40°40' W 074°04'1 1.2
2016-Feb-07 15:34N 40°41' W 074°05'0 0.0
2016-Feb-07 14:34N 40°41' W 074°05'0 0.0
2016-Feb-07 13:33N 40°41' W 074°05'0 0.0
2016-Feb-07 12:33N 40°41' W 074°05'0 0.0
2016-Feb-07 11:33N 40°41' W 074°05'0 0.0
2016-Feb-07 10:33N 40°41' W 074°05'0 0.0
2016-Feb-07 09:34N 40°41' W 074°05'0 0.0
2016-Feb-07 08:33N 40°41' W 074°05'0 0.0
2016-Feb-07 07:33N 40°41' W 074°05'0 0.0
2016-Feb-07 06:33N 40°41' W 074°05'0 0.0
2016-Feb-07 05:34N 40°41' W 074°05'0 0.0
2016-Feb-07 04:34N 40°41' W 074°05'0 0.0
2016-Feb-07 03:34N 40°41' W 074°05'4 4.4
2016-Feb-07 02:33N 40°43' W 073°59'1 0.4
2016-Feb-06 23:33N 40°44' W 073°58'5 5.4
2016-Feb-06 22:33N 40°41' W 074°04'0 0.2
2016-Feb-06 21:34N 40°41' W 074°05'3 3.3
2016-Feb-06 20:33N 40°40' W 074°01'3 3.1
2016-Feb-06 19:33N 40°43' W 073°59'2 1.8
2016-Feb-06 18:33N 40°44' W 073°58'1 0.8
2016-Feb-06 17:33N 40°44' W 073°57'1 0.8
2016-Feb-06 16:33N 40°44' W 073°58'0 0.0
2016-Feb-06 15:33N 40°44' W 073°58'0 0.0
2016-Feb-06 14:33N 40°44' W 073°58'0 0.0
2016-Feb-06 13:33N 40°44' W 073°58'0 0.0
2016-Feb-06 12:33N 40°44' W 073°58'0 0.0
2016-Feb-06 11:33N 40°44' W 073°58'0 0.0
2016-Feb-06 10:33N 40°44' W 073°58'0 0.0
2016-Feb-06 09:33N 40°44' W 073°58'0 0.0
2016-Feb-06 08:33N 40°44' W 073°58'0 0.0
2016-Feb-06 07:33N 40°44' W 073°58'0 0.0
2016-Feb-06 06:33N 40°44' W 073°58'1 0.8
2016-Feb-06 05:33N 40°43' W 073°58'5 5.0
2016-Feb-06 04:33N 40°40' W 074°03'2 2.3
2016-Feb-06 03:33N 40°40' W 074°01'4 4.0
2016-Feb-06 02:33N 40°43' W 073°58'6 2.8
2016-Feb-06 00:20N 40°48' W 073°53'5 6.7
2016-Feb-05 23:33N 40°44' W 073°58'5 4.9
2016-Feb-05 22:33N 40°41' W 074°02'2 1.7
2016-Feb-05 21:33N 40°41' W 074°05'0 0.0
2016-Feb-05 20:33N 40°41' W 074°05'0 0.0
2016-Feb-05 19:34N 40°41' W 074°05'0 0.0
2016-Feb-05 18:34N 40°41' W 074°05'0 0.0
2016-Feb-05 17:34N 40°41' W 074°05'0 0.0
2016-Feb-05 16:33N 40°41' W 074°05'0 0.0
2016-Feb-05 15:34N 40°41' W 074°05'0 0.0
2016-Feb-05 14:33N 40°41' W 074°05'0 0.0
2016-Feb-05 13:33N 40°41' W 074°05'0 0.0
2016-Feb-05 12:33N 40°41' W 074°05'0 0.0
2016-Feb-05 11:33N 40°41' W 074°05'0 0.0
2016-Feb-05 10:33N 40°41' W 074°05'0 0.0
2016-Feb-05 09:33N 40°41' W 074°05'0 0.0
2016-Feb-05 08:33N 40°41' W 074°05'0 0.0
2016-Feb-05 07:33N 40°41' W 074°05'0 0.0
2016-Feb-05 06:33N 40°41' W 074°05'0 0.0
2016-Feb-05 05:33N 40°41' W 074°05'0 0.0
2016-Feb-05 04:33N 40°41' W 074°05'0 0.0
2016-Feb-05 03:33N 40°41' W 074°05'0 0.0
2016-Feb-05 02:33N 40°41' W 074°05'0 0.0
2016-Feb-05 01:33N 40°41' W 074°05'0 0.0
2016-Feb-05 00:33N 40°41' W 074°05'0 0.0
2016-Feb-04 23:33N 40°41' W 074°05'0 0.0
2016-Feb-04 22:33N 40°41' W 074°05'0 0.0
2016-Feb-04 21:33N 40°41' W 074°05'0 0.0
2016-Feb-04 20:33N 40°41' W 074°05'0 0.0
2016-Feb-04 19:33N 40°41' W 074°05'0 0.0
2016-Feb-04 18:33N 40°41' W 074°05'0 0.0
2016-Feb-04 17:33N 40°41' W 074°05'0 0.0
2016-Feb-04 16:33N 40°41' W 074°05'0 0.0
2016-Feb-04 15:33N 40°41' W 074°05'0 0.0
2016-Feb-04 14:33N 40°41' W 074°05'0 0.0
2016-Feb-04 13:33N 40°41' W 074°05'0 0.0
2016-Feb-04 12:33N 40°41' W 074°05'0 0.0
2016-Feb-04 11:33N 40°41' W 074°05'0 0.0
2016-Feb-04 10:33N 40°41' W 074°05'0 0.0
2016-Feb-04 09:33N 40°41' W 074°05'0 0.0
2016-Feb-04 08:33N 40°41' W 074°05'0 0.0
2016-Feb-04 07:33N 40°41' W 074°05'0 0.0
2016-Feb-04 06:33N 40°41' W 074°05'0 0.0
2016-Feb-04 05:33N 40°41' W 074°05'0 0.0
2016-Feb-04 04:33N 40°41' W 074°05'0 0.0
2016-Feb-04 03:33N 40°41' W 074°05'0 0.0
2016-Feb-04 02:33N 40°41' W 074°05'0 0.0
2016-Feb-04 01:33N 40°41' W 074°05'0 0.0
2016-Feb-04 00:33N 40°41' W 074°05'0 0.0
2016-Feb-03 23:33N 40°41' W 074°05'0 0.0
2016-Feb-03 22:33N 40°41' W 074°05'0 0.0
2016-Feb-03 21:33N 40°41' W 074°05'0 0.0
2016-Feb-03 20:33N 40°41' W 074°05'0 0.0
2016-Feb-03 19:33N 40°41' W 074°05'0 0.0
2016-Feb-03 18:33N 40°41' W 074°05'0 0.0
2016-Feb-03 17:33N 40°41' W 074°05'0 0.0
2016-Feb-03 16:33N 40°41' W 074°05'0 0.0
2016-Feb-03 15:33N 40°41' W 074°05'0 0.0
2016-Feb-03 14:33N 40°41' W 074°05'0 0.0
2016-Feb-03 13:33N 40°41' W 074°05'0 0.0
2016-Feb-03 12:33N 40°41' W 074°05'0 0.0
2016-Feb-03 11:33N 40°41' W 074°05'0 0.0
2016-Feb-03 10:33N 40°41' W 074°05'0 0.0
2016-Feb-03 09:33N 40°41' W 074°05'0 0.0
2016-Feb-03 08:33N 40°41' W 074°05'0 0.0
2016-Feb-03 07:34N 40°41' W 074°05'0 0.0
2016-Feb-03 06:34N 40°41' W 074°05'0 0.0
2016-Feb-03 05:33N 40°41' W 074°05'0 0.0
2016-Feb-03 04:34N 40°41' W 074°05'0 0.0
2016-Feb-03 03:33N 40°41' W 074°05'0 0.0
2016-Feb-03 02:33N 40°41' W 074°05'0 0.0
2016-Feb-03 01:33N 40°41' W 074°05'0 0.0
2016-Feb-03 00:33N 40°41' W 074°05'0 0.0
2016-Feb-02 23:34N 40°41' W 074°05'0 0.0
2016-Feb-02 22:34N 40°41' W 074°05'0 0.0
2016-Feb-02 21:34N 40°41' W 074°05'0 0.0
2016-Feb-02 20:34N 40°41' W 074°05'0 0.0
2016-Feb-02 19:33N 40°41' W 074°05'0 0.0
2016-Feb-02 18:33N 40°41' W 074°05'0 0.0
2016-Feb-02 17:34N 40°41' W 074°05'0 0.0
2016-Feb-02 16:34N 40°41' W 074°05'0 0.0
2016-Feb-02 15:34N 40°41' W 074°05'0 0.0
2016-Feb-02 14:33N 40°41' W 074°05'0 0.0
2016-Feb-02 13:34N 40°41' W 074°05'0 0.0
2016-Feb-02 12:33N 40°41' W 074°05'0 0.0
2016-Feb-02 11:34N 40°41' W 074°05'0 0.0
2016-Feb-02 10:33N 40°41' W 074°05'  

Dump ship's entire track history